Time;durP1;ratioP1;P1;durP2;ratioP2;P2;SDS_P1;SDS_P2;PMS_P1;PMS_P2;Temp;Humidity;BMP_temperature;BMP_pressure;BME280_temperature;BME280_humidity;BME280_pressure;Samples;Min_cycle;Max_cycle;Signal;HPM_P1;HPM_P2
2022/08/26 00:00:41;;;;;;;;;1.25;1.25;;;;;25.48;48.13;101236.91;5014018;28;45257;-49
2022/08/26 00:03:06;;;;;;;;;3.00;3.00;;;;;25.48;48.65;101236.91;5015242;28;45680;-53
2022/08/26 00:05:35;;;;;;;;;4.00;3.00;;;;;25.48;48.66;101236.91;5014493;28;46320;-53
2022/08/26 00:08:00;;;;;;;;;3.00;3.00;;;;;25.45;48.62;101227.38;5016975;28;45432;-48
2022/08/26 00:10:26;;;;;;;;;2.25;2.25;;;;;25.44;48.83;101216.84;5035969;28;45418;-46
2022/08/26 00:12:51;;;;;;;;;2.75;2.75;;;;;25.43;48.08;101234.59;5035705;28;45311;-49
2022/08/26 00:15:19;;;;;;;;;3.00;3.00;;;;;25.44;48.74;101233.63;5034868;28;46434;-49
2022/08/26 00:17:45;;;;;;;;;3.25;3.25;;;;;25.43;48.74;101231.06;5020384;28;45711;-49
2022/08/26 00:20:14;;;;;;;;;2.00;2.00;;;;;25.41;48.69;101230.34;5014880;28;45339;-48
2022/08/26 00:22:39;;;;;;;;;3.00;3.00;;;;;25.40;48.51;101239.22;5015038;28;45465;-50
2022/08/26 00:25:07;;;;;;;;;2.75;2.50;;;;;25.39;49.06;101240.19;5014535;28;46615;-49
2022/08/26 00:27:32;;;;;;;;;5.00;3.75;;;;;25.36;48.62;101235.09;5015087;28;45444;-48
2022/08/26 00:29:59;;;;;;;;;4.50;2.50;;;;;25.35;48.58;101244.00;5032181;28;45401;-49
2022/08/26 00:32:25;;;;;;;;;2.00;2.00;;;;;25.35;49.25;101238.69;5035228;28;45581;-49
2022/08/26 00:34:50;;;;;;;;;2.00;2.00;;;;;25.34;48.64;101237.84;5034174;28;46480;-47
2022/08/26 00:37:15;;;;;;;;;2.25;2.25;;;;;25.35;48.96;101236.03;5033195;28;45439;-46
2022/08/26 00:39:41;;;;;;;;;2.00;2.00;;;;;25.34;49.21;101237.00;5032799;28;45227;-48
2022/08/26 00:42:07;;;;;;;;;1.75;1.75;;;;;25.32;48.64;101237.94;5034090;28;45769;-49
2022/08/26 00:44:32;;;;;;;;;2.00;2.00;;;;;25.35;49.23;101236.91;5034371;28;45520;-50
2022/08/26 00:47:01;;;;;;;;;4.00;2.75;;;;;25.36;49.02;101243.03;5032829;28;45332;-46
2022/08/26 00:49:42;;;;;;;;;3.00;3.00;;;;;25.36;48.75;101245.69;5021954;28;45373;-48
2022/08/26 00:52:15;;;;;;;;;2.75;2.75;;;;;25.37;49.25;101236.78;5014594;28;45317;-47
2022/08/26 00:54:48;;;;;;;;;2.75;2.75;;;;;25.34;49.17;101250.25;5014434;28;46123;-50
2022/08/26 00:57:16;;;;;;;;;3.00;3.00;;;;;25.31;49.53;101246.03;5014069;28;45803;-49
2022/08/26 00:59:45;;;;;;;;;3.00;3.00;;;;;25.32;49.02;101253.03;5026451;28;45865;-50
2022/08/26 01:02:11;;;;;;;;;2.25;2.25;;;;;25.32;49.21;101248.56;5034003;28;45407;-50
2022/08/26 01:04:38;;;;;;;;;5.00;5.00;;;;;25.34;49.09;101255.56;5034202;28;45983;-47
2022/08/26 01:07:04;;;;;;;;;6.50;4.00;;;;;25.31;49.60;101251.31;5033902;28;45383;-49
2022/08/26 01:09:30;;;;;;;;;3.25;3.25;;;;;25.31;49.40;101241.53;5022047;28;45530;-58
2022/08/26 01:11:59;;;;;;;;;3.50;3.50;;;;;25.30;49.30;101242.50;5013915;28;45301;-57
2022/08/26 01:14:29;;;;;;;;;3.00;3.00;;;;;25.29;48.95;101237.31;5031542;28;45294;-55
2022/08/26 01:16:57;;;;;;;;;4.00;4.00;;;;;25.29;48.95;101242.63;5034640;28;45550;-57
2022/08/26 01:19:28;;;;;;;;;4.25;4.25;;;;;25.27;49.35;101245.38;5034120;28;45485;-57
2022/08/26 01:21:59;;;;;;;;;4.00;4.00;;;;;25.26;49.42;101246.34;5035078;28;45308;-51
2022/08/26 01:24:27;;;;;;;;;3.00;3.00;;;;;25.24;49.36;101239.44;5034601;28;45350;-63
2022/08/26 01:26:58;;;;;;;;;3.00;3.00;;;;;25.25;49.67;101235.81;5034560;28;45796;-54
2022/08/26 01:29:24;;;;;;;;;5.00;5.00;;;;;25.24;49.40;101234.97;5024257;28;45521;-55
2022/08/26 01:31:56;;;;;;;;;2.75;2.75;;;;;25.24;49.21;101240.28;5014111;28;45594;-49
2022/08/26 01:34:26;;;;;;;;;4.00;4.00;;;;;25.22;49.11;101244.84;5014125;28;45945;-51
2022/08/26 01:37:06;;;;;;;;;4.75;4.50;;;;;25.22;49.69;101242.19;5017365;28;45826;-48
2022/08/26 01:39:34;;;;;;;;;3.50;3.50;;;;;25.20;49.26;101245.91;5022425;28;45335;-51
2022/08/26 01:42:02;;;;;;;;;6.00;6.00;;;;;25.17;49.54;101244.34;5013698;28;45498;-52
2022/08/26 01:44:35;;;;;;;;;4.75;4.00;;;;;25.16;49.74;101242.63;5013555;28;48005;-48
2022/08/26 01:47:01;;;;;;;;;5.25;5.25;;;;;25.16;49.71;101242.63;5013285;28;45874;-50
2022/08/26 01:49:27;;;;;;;;;4.25;4.25;;;;;25.16;50.03;101250.59;5022000;28;45363;-50
2022/08/26 01:51:57;;;;;;;;;4.75;4.75;;;;;25.16;49.59;101242.63;5034633;28;45511;-49
2022/08/26 01:54:23;;;;;;;;;4.75;4.75;;;;;25.14;49.91;101236.56;5034237;28;46254;-47
2022/08/26 01:56:51;;;;;;;;;4.25;4.25;;;;;25.14;50.01;101239.22;5033393;28;45657;-49
2022/08/26 01:59:19;;;;;;;;;6.00;4.00;;;;;25.15;49.97;101246.22;5026066;28;45419;-47
2022/08/26 02:01:45;;;;;;;;;8.00;6.00;;;;;25.13;49.40;101248.13;5013531;28;45593;-51
2022/08/26 02:04:25;;;;;;;;;5.50;5.50;;;;;25.14;49.52;101255.13;5012956;28;45507;-49
2022/08/26 02:06:52;;;;;;;;;7.00;6.75;;;;;25.12;49.66;101246.44;5013379;28;45443;-47
2022/08/26 02:09:19;;;;;;;;;5.75;5.75;;;;;25.10;50.06;101254.50;5020575;28;45502;-52
2022/08/26 02:11:46;;;;;;;;;6.00;6.00;;;;;25.09;50.03;101257.25;5033502;28;45388;-52
2022/08/26 02:14:31;;;;;;;;;5.00;5.00;;;;;25.06;49.83;101260.13;5032458;28;46215;-52
2022/08/26 02:16:57;;;;;;;;;8.25;6.50;;;;;25.05;50.08;101261.91;5033055;28;45755;-46
2022/08/26 02:19:29;;;;;;;;;9.00;7.50;;;;;25.01;50.16;101258.63;5033068;28;45307;-47
2022/08/26 02:21:59;;;;;;;;;8.75;7.25;;;;;25.00;49.92;101264.88;5032644;28;45368;-50
2022/08/26 02:24:28;;;;;;;;;5.25;5.25;;;;;24.99;49.90;101262.34;5033664;28;45595;-52
2022/08/26 02:26:56;;;;;;;;;9.00;9.00;;;;;24.98;49.91;101253.53;5032266;28;45436;-49
2022/08/26 02:29:40;;;;;;;;;10.25;8.00;;;;;24.99;50.43;101257.03;5025905;28;45805;-63
2022/08/26 02:32:09;;;;;;;;;6.00;6.00;;;;;24.95;50.47;101256.41;5013031;28;45336;-47
2022/08/26 02:34:34;;;;;;;;;8.75;7.25;;;;;24.94;50.32;101254.72;5012742;28;45638;-48
2022/08/26 02:37:03;;;;;;;;;7.50;7.50;;;;;24.93;50.02;101250.34;5012700;28;45281;-49
2022/08/26 02:39:30;;;;;;;;;7.50;7.50;;;;;24.94;50.57;101259.16;5020428;28;45374;-51
2022/08/26 02:41:56;;;;;;;;;7.00;7.00;;;;;24.92;50.43;101256.59;5033898;28;45576;-50
2022/08/26 02:44:22;;;;;;;;;8.50;6.25;;;;;24.92;50.21;101261.91;5033533;28;46673;-56
2022/08/26 02:46:47;;;;;;;;;7.50;7.00;;;;;24.92;50.29;101261.03;5032717;28;45344;-50
2022/08/26 02:49:15;;;;;;;;;9.25;9.25;;;;;24.91;50.20;101265.50;5026744;28;45331;-48
2022/08/26 02:51:40;;;;;;;;;9.50;8.00;;;;;24.89;50.47;101259.44;5012980;28;45591;-49
2022/08/26 02:54:06;;;;;;;;;8.00;8.00;;;;;24.89;50.04;101262.09;5012144;28;45518;-50
2022/08/26 02:56:33;;;;;;;;;10.00;9.00;;;;;24.86;50.37;101259.66;5012617;28;45463;-48
2022/08/26 02:58:58;;;;;;;;;8.50;8.00;;;;;24.83;50.70;101257.22;5019346;28;45419;-48
2022/08/26 03:01:31;;;;;;;;;11.00;8.50;;;;;24.83;50.45;101262.53;5032095;28;45657;-48
2022/08/26 03:03:57;;;;;;;;;11.50;8.50;;;;;24.80;50.43;101263.59;5036567;28;45645;-47
2022/08/26 03:06:23;;;;;;;;;11.00;9.25;;;;;24.80;50.22;101260.94;5036437;28;45938;-51
2022/08/26 03:08:49;;;;;;;;;8.50;8.50;;;;;24.77;50.69;101258.50;5034314;28;46816;-48
2022/08/26 03:11:15;;;;;;;;;7.00;7.00;;;;;24.79;50.34;101264.53;5036126;28;45526;-51
2022/08/26 03:13:41;;;;;;;;;10.25;9.00;;;;;24.78;50.22;101256.69;5035440;28;45370;-48
2022/08/26 03:16:07;;;;;;;;;9.00;9.00;;;;;24.79;50.71;101263.69;5035869;28;45274;-50
2022/08/26 03:18:32;;;;;;;;;9.25;8.50;;;;;24.78;51.12;101264.63;5035139;28;45801;-52
2022/08/26 03:21:04;;;;;;;;;9.50;7.25;;;;;24.76;50.25;101255.91;5035838;28;45624;-46
2022/08/26 03:23:30;;;;;;;;;8.50;8.50;;;;;24.75;50.97;101246.31;5034647;28;45551;-50
2022/08/26 03:25:55;;;;;;;;;10.00;8.75;;;;;24.76;50.53;101258.56;5036348;28;45368;-50
2022/08/26 03:28:21;;;;;;;;;11.25;9.25;;;;;24.77;50.11;101257.63;5034046;28;45362;-49
2022/08/26 03:30:48;;;;;;;;;10.50;10.00;;;;;24.77;50.57;101257.63;5015257;28;45235;-54
2022/08/26 03:33:13;;;;;;;;;11.00;11.00;;;;;24.76;50.49;101266.53;5015345;28;45357;-56
2022/08/26 03:35:43;;;;;;;;;15.00;10.25;;;;;24.73;50.54;101253.50;5015353;28;45508;-56
2022/08/26 03:38:10;;;;;;;;;11.75;9.50;;;;;24.72;50.64;101259.75;5015515;28;45486;-51
2022/08/26 03:40:37;;;;;;;;;13.25;10.75;;;;;24.72;51.15;101259.75;5032214;28;45446;-50
2022/08/26 03:43:05;;;;;;;;;11.00;10.00;;;;;24.71;50.97;101248.28;5035176;28;46258;-50
2022/08/26 03:45:31;;;;;;;;;10.50;10.50;;;;;24.70;50.65;101252.75;5035037;28;45808;-51
2022/08/26 03:47:57;;;;;;;;;9.75;8.25;;;;;24.69;51.20;101251.03;5036182;28;45371;-50
2022/08/26 03:50:23;;;;;;;;;14.50;11.25;;;;;24.69;50.60;101253.69;5020765;28;45342;-52
2022/08/26 03:52:50;;;;;;;;;10.00;9.00;;;;;24.71;51.33;101256.22;5015150;28;45432;-49
2022/08/26 03:55:16;;;;;;;;;12.50;9.25;;;;;24.70;51.12;101247.44;5015263;28;45214;-52
2022/08/26 03:57:42;;;;;;;;;10.25;9.75;;;;;24.75;50.90;101254.25;5015150;28;45266;-55
2022/08/26 04:00:13;;;;;;;;;8.25;8.25;;;;;24.76;51.26;101250.63;5016555;28;45695;-49
2022/08/26 04:02:39;;;;;;;;;10.00;9.25;;;;;24.80;51.12;101252.13;5014619;28;46542;-50
2022/08/26 04:05:05;;;;;;;;;9.25;8.75;;;;;24.83;51.22;101254.59;5013815;28;45804;-55
2022/08/26 04:07:30;;;;;;;;;9.50;7.00;;;;;24.85;50.58;101250.03;5015046;28;45255;-51
2022/08/26 04:09:57;;;;;;;;;9.75;9.75;;;;;24.88;50.83;101260.41;5030813;28;45339;-54
2022/08/26 04:12:26;;;;;;;;;8.25;7.50;;;;;24.90;51.06;101255.84;5035166;28;46423;-58
2022/08/26 04:14:51;;;;;;;;;10.50;9.25;;;;;24.91;51.06;101249.59;5034925;28;45372;-51
2022/08/26 04:17:18;;;;;;;;;9.50;7.25;;;;;24.93;50.55;101250.34;5034965;28;45417;-47
2022/08/26 04:19:43;;;;;;;;;12.50;10.00;;;;;24.94;51.11;101249.41;5034053;28;45497;-49
2022/08/26 04:22:08;;;;;;;;;13.00;10.50;;;;;24.96;51.07;101251.94;5034226;28;46544;-50
2022/08/26 04:24:34;;;;;;;;;10.00;9.00;;;;;24.94;51.13;101249.41;5034316;28;45428;-50
2022/08/26 04:27:02;;;;;;;;;5.00;5.00;;;;;24.96;50.86;101255.47;5034962;28;45358;-50
2022/08/26 04:29:28;;;;;;;;;9.50;9.50;;;;;24.98;50.43;101260.66;5024410;28;45877;-46
2022/08/26 04:31:55;;;;;;;;;9.00;7.25;;;;;24.98;50.36;101261.47;5015441;28;45422;-46
2022/08/26 04:34:21;;;;;;;;;9.75;9.50;;;;;25.00;50.54;101264.03;5014374;28;45814;-48
2022/08/26 04:36:47;;;;;;;;;9.25;8.75;;;;;25.01;50.83;101260.44;5014811;28;45481;-49
2022/08/26 04:39:15;;;;;;;;;11.50;8.50;;;;;25.00;50.49;101264.88;5022616;28;45639;-49
2022/08/26 04:41:42;;;;;;;;;10.00;8.50;;;;;25.00;51.08;101264.88;5034005;28;47336;-47
2022/08/26 04:44:07;;;;;;;;;13.25;11.00;;;;;24.99;50.86;101263.19;5034243;28;45812;-49
2022/08/26 04:46:33;;;;;;;;;14.75;12.00;;;;;24.98;50.49;101266.78;5034194;28;45667;-52
2022/08/26 04:48:58;;;;;;;;;13.00;12.00;;;;;24.95;51.01;101267.00;5026509;28;45621;-48
2022/08/26 04:51:27;;;;;;;;;15.25;11.50;;;;;24.93;50.51;101266.25;5013459;28;46148;-48
2022/08/26 04:53:55;;;;;;;;;8.50;7.25;;;;;24.90;50.80;101274.41;5014407;28;45436;-49
2022/08/26 04:56:21;;;;;;;;;15.25;12.75;;;;;24.87;50.84;101269.31;5014095;28;45240;-50
2022/08/26 04:58:48;;;;;;;;;14.75;13.50;;;;;24.85;50.79;101276.53;5016724;28;45595;-49
2022/08/26 05:01:13;;;;;;;;;13.50;10.50;;;;;24.84;50.80;101272.19;5034132;28;46342;-54
2022/08/26 05:03:38;;;;;;;;;11.00;8.50;;;;;24.83;51.13;101276.63;5033773;28;45181;-50
2022/08/26 05:06:04;;;;;;;;;12.50;11.25;;;;;24.80;50.76;101275.97;5032913;28;45288;-49
2022/08/26 05:08:30;;;;;;;;;15.50;12.25;;;;;24.82;51.18;101276.75;5031754;28;45239;-49
2022/08/26 05:10:55;;;;;;;;;12.25;11.25;;;;;24.80;51.38;101278.63;5014828;28;46504;-46
2022/08/26 05:13:24;;;;;;;;;6.00;6.00;;;;;24.78;50.88;101275.22;5020406;28;45542;-50
2022/08/26 05:15:50;;;;;;;;;15.00;15.00;;;;;24.75;51.42;101286.06;5034228;28;45309;-54
2022/08/26 05:18:19;;;;;;;;;15.25;10.75;;;;;24.75;50.99;101280.75;5034139;28;45313;-50
2022/08/26 05:20:47;;;;;;;;;18.00;14.50;;;;;24.74;50.96;101282.53;5033369;28;45443;-48
2022/08/26 05:23:14;;;;;;;;;10.25;9.75;;;;;24.75;51.47;101288.72;5033043;28;45376;-51
2022/08/26 05:25:43;;;;;;;;;12.75;10.25;;;;;24.75;50.79;101291.38;5033745;28;45454;-50
2022/08/26 05:28:09;;;;;;;;;15.00;10.25;;;;;24.76;51.36;101298.34;5034073;28;45844;-56
2022/08/26 05:30:35;;;;;;;;;14.75;14.00;;;;;24.75;51.46;101307.28;5013458;28;46657;-51
2022/08/26 05:33:02;;;;;;;;;14.25;11.75;;;;;24.75;50.85;101302.81;5013542;28;45430;-51
2022/08/26 05:35:30;;;;;;;;;19.25;12.50;;;;;24.73;51.30;101310.00;5033612;28;45331;-62
2022/08/26 05:37:57;;;;;;;;;12.50;11.25;;;;;24.75;51.14;101307.28;5034605;28;45221;-57
2022/08/26 05:40:22;;;;;;;;;12.50;11.00;;;;;24.77;51.13;101310.63;5031706;28;47227;-57
2022/08/26 05:42:48;;;;;;;;;12.50;12.50;;;;;24.76;51.41;101307.16;5033271;28;45327;-54
2022/08/26 05:45:13;;;;;;;;;15.00;13.00;;;;;24.76;50.90;101312.47;5016337;28;45419;-57
2022/08/26 05:47:38;;;;;;;;;14.00;14.00;;;;;24.75;51.28;101312.56;5013645;28;45376;-50
2022/08/26 05:50:04;;;;;;;;;14.25;11.25;;;;;24.73;51.48;101315.31;5013242;28;45799;-51
2022/08/26 05:52:32;;;;;;;;;13.75;13.75;;;;;24.72;50.97;101318.06;5013034;28;45985;-46
2022/08/26 05:54:57;;;;;;;;;10.00;9.50;;;;;24.69;51.06;101313.81;5027950;28;45438;-51
2022/08/26 05:57:22;;;;;;;;;16.00;13.25;;;;;24.67;51.73;101319.16;5033052;28;45351;-47
2022/08/26 05:59:48;;;;;;;;;14.00;13.25;;;;;24.66;51.65;101314.81;5032995;28;45458;-50
2022/08/26 06:02:13;;;;;;;;;15.00;12.00;;;;;24.67;51.55;101315.69;5032982;28;45338;-46
2022/08/26 06:04:38;;;;;;;;;16.00;13.75;;;;;24.64;51.64;101311.41;5021081;28;45618;-46
2022/08/26 06:07:04;;;;;;;;;17.50;14.00;;;;;24.66;51.14;101316.63;5028742;28;45669;-48
2022/08/26 06:09:29;;;;;;;;;13.75;12.50;;;;;24.63;51.18;101315.03;5013241;28;45520;-46
2022/08/26 06:11:57;;;;;;;;;13.00;11.75;;;;;24.63;51.70;101325.66;5014026;28;45375;-50
2022/08/26 06:14:24;;;;;;;;;12.75;12.75;;;;;24.61;51.36;101322.25;5028640;28;45319;-48
2022/08/26 06:16:50;;;;;;;;;18.25;13.00;;;;;24.64;51.38;101322.00;5032065;28;45435;-47
2022/08/26 06:19:16;;;;;;;;;14.00;11.75;;;;;24.63;51.21;101325.66;5032881;28;45432;-54
2022/08/26 06:21:45;;;;;;;;;12.25;11.25;;;;;24.65;51.15;101321.06;5032453;28;45496;-49
2022/08/26 06:27:02;;;;;;;;;11.75;10.00;;;;;24.69;51.21;101314.66;5013885;28;45254;-54
2022/08/26 06:29:30;;;;;;;;;11.75;10.75;;;;;24.71;51.03;101314.53;5013590;28;45372;-51
2022/08/26 06:31:56;;;;;;;;;15.00;10.25;;;;;24.73;51.13;101317.94;5014907;28;45434;-46
2022/08/26 06:34:23;;;;;;;;;11.00;10.50;;;;;24.77;51.32;101315.94;5023549;28;45372;-49
2022/08/26 06:36:49;;;;;;;;;11.25;11.00;;;;;24.78;51.28;101313.22;5012025;28;45341;-48
2022/08/26 06:39:16;;;;;;;;;12.75;9.50;;;;;24.81;51.24;101315.63;5012640;28;46477;-50
2022/08/26 06:41:43;;;;;;;;;8.50;8.50;;;;;24.85;51.08;101319.78;5012663;28;45506;-49
2022/08/26 06:44:10;;;;;;;;;11.50;9.25;;;;;24.88;50.77;101318.72;5018793;28;45398;-48
2022/08/26 06:46:36;;;;;;;;;10.00;8.25;;;;;24.91;50.54;101320.34;5032575;28;45251;-59
2022/08/26 06:49:03;;;;;;;;;11.50;7.25;;;;;24.92;50.64;101328.19;5032066;28;46481;-51
2022/08/26 06:51:31;;;;;;;;;6.50;6.25;;;;;24.97;50.72;101322.59;5032955;28;45279;-50
2022/08/26 06:53:58;;;;;;;;;10.50;7.00;;;;;25.00;50.79;101327.69;5028161;28;45491;-52
2022/08/26 06:56:34;;;;;;;;;9.00;8.00;;;;;25.01;50.71;101329.41;5012531;28;45380;-49
2022/08/26 06:58:59;;;;;;;;;8.75;7.00;;;;;25.01;50.54;101330.22;5013055;28;46570;-53
2022/08/26 07:01:27;;;;;;;;;8.00;7.25;;;;;25.04;50.22;101328.31;5012049;28;45447;-49
2022/08/26 07:03:57;;;;;;;;;7.75;7.75;;;;;25.06;50.56;101327.25;5016198;28;45482;-50
2022/08/26 07:06:24;;;;;;;;;11.25;8.50;;;;;25.07;50.56;101328.97;5032380;28;45408;-50
2022/08/26 07:08:51;;;;;;;;;8.50;8.00;;;;;25.08;50.44;101328.03;5031988;28;46371;-45
2022/08/26 07:11:18;;;;;;;;;8.00;8.00;;;;;25.07;50.43;101328.97;5032315;28;45254;-51
2022/08/26 07:13:45;;;;;;;;;9.25;8.25;;;;;25.07;50.12;101323.66;5031298;28;45250;-53
2022/08/26 07:16:13;;;;;;;;;8.00;8.00;;;;;25.08;49.99;101324.53;5032601;28;45457;-49
2022/08/26 07:18:41;;;;;;;;;9.00;8.25;;;;;25.06;50.26;101316.66;5031748;28;46517;-48
2022/08/26 07:21:10;;;;;;;;;11.00;9.25;;;;;25.07;50.08;101328.97;5032153;28;45268;-53
2022/08/26 07:23:37;;;;;;;;;10.75;8.25;;;;;25.08;50.42;101328.03;5030716;28;45718;-48
2022/08/26 07:26:08;;;;;;;;;12.00;11.00;;;;;25.07;49.98;101328.97;5031913;28;45561;-50
2022/08/26 07:28:34;;;;;;;;;12.00;10.25;;;;;25.08;49.97;101332.50;5031771;28;45375;-49
2022/08/26 07:31:07;;;;;;;;;14.25;10.50;;;;;25.09;50.69;101326.19;5032714;28;46075;-49
2022/08/26 07:33:33;;;;;;;;;11.25;11.00;;;;;25.09;50.64;101326.19;5031677;28;45497;-48
2022/08/26 07:35:59;;;;;;;;;11.25;11.00;;;;;25.12;50.40;101333.97;5015930;28;45626;-48
2022/08/26 07:38:24;;;;;;;;;10.50;10.50;;;;;25.13;50.50;101333.00;5030256;28;48206;-52
2022/08/26 07:40:50;;;;;;;;;9.75;8.00;;;;;25.15;50.50;101341.72;5031893;28;45317;-54
2022/08/26 07:43:16;;;;;;;;;11.25;10.25;;;;;25.16;50.67;101327.50;5031963;28;45248;-53
2022/08/26 07:45:41;;;;;;;;;9.75;9.75;;;;;25.17;50.28;101334.50;5014401;28;45698;-51
2022/08/26 07:48:07;;;;;;;;;10.75;9.00;;;;;25.19;49.75;101337.88;5015740;28;46937;-47
2022/08/26 07:50:34;;;;;;;;;8.50;7.50;;;;;25.21;50.10;101338.63;5025559;28;45462;-51
2022/08/26 07:53:01;;;;;;;;;8.00;8.00;;;;;25.23;49.58;101336.75;5033845;28;45460;-59
2022/08/26 07:55:27;;;;;;;;;9.00;8.00;;;;;25.25;49.70;101337.50;5019984;28;45280;-58
2022/08/26 07:57:52;;;;;;;;;11.50;8.75;;;;;25.28;49.61;101337.28;5015185;28;45320;-56
2022/08/26 08:00:18;;;;;;;;;11.75;8.25;;;;;25.30;49.45;101340.66;5023840;28;45233;-59
2022/08/26 08:02:43;;;;;;;;;10.00;8.75;;;;;25.29;49.29;101325.72;5034170;28;45422;-59
2022/08/26 08:05:10;;;;;;;;;9.50;7.00;;;;;25.31;49.12;101333.56;5034004;28;45387;-56
2022/08/26 08:07:36;;;;;;;;;7.50;7.00;;;;;25.31;49.39;101337.06;5026842;28;46678;-60
2022/08/26 08:10:03;;;;;;;;;11.75;9.00;;;;;25.34;48.66;101337.81;5024298;28;45731;-48
2022/08/26 08:12:29;;;;;;;;;6.50;6.50;;;;;25.33;49.27;101331.66;5034088;28;45402;-49
2022/08/26 08:14:54;;;;;;;;;8.25;7.50;;;;;25.34;48.63;101333.38;5015515;28;45341;-47
2022/08/26 08:17:19;;;;;;;;;8.75;8.75;;;;;25.36;49.30;101341.22;5018964;28;45391;-46
2022/08/26 08:19:45;;;;;;;;;9.25;8.50;;;;;25.37;48.85;101329.66;5017446;28;45519;-45
2022/08/26 08:22:10;;;;;;;;;8.75;8.75;;;;;25.39;48.42;101333.88;5034145;28;45406;-46
2022/08/26 08:24:37;;;;;;;;;8.00;8.00;;;;;25.40;48.57;101337.41;5034652;28;45459;-51
2022/08/26 08:27:03;;;;;;;;;8.00;8.00;;;;;25.41;48.82;101333.84;5034876;28;45619;-46
2022/08/26 08:29:28;;;;;;;;;13.50;11.75;;;;;25.42;48.96;101336.38;5035152;28;45319;-54
2022/08/26 08:31:58;;;;;;;;;10.50;8.75;;;;;25.42;48.96;101336.38;5032748;28;45420;-50
2022/08/26 08:34:26;;;;;;;;;10.00;9.50;;;;;25.45;48.92;101337.97;5033076;28;45854;-54
2022/08/26 08:51:33;;;;;;;;;10.25;9.00;;;;;25.51;48.82;101329.59;5182444;22;46319;-60
2022/08/26 08:54:00;;;;;;;;;9.50;9.00;;;;;25.52;48.40;101333.91;5034105;28;45264;-60
2022/08/26 08:56:40;;;;;;;;;9.00;7.25;;;;;25.54;48.33;101332.00;5033906;28;45620;-61
2022/08/26 08:59:14;;;;;;;;;10.00;10.00;;;;;25.56;48.77;101331.94;5022373;28;45461;-63
2022/08/26 09:01:57;;;;;;;;;7.75;7.25;;;;;25.57;48.69;101336.28;5014060;28;45749;-60
2022/08/26 09:04:57;;;;;;;;;10.75;9.75;;;;;25.59;48.62;101329.03;5013650;28;45460;-60
2022/08/26 09:07:32;;;;;;;;;12.50;11.25;;;;;25.59;48.50;101329.91;5013748;28;45316;-60
2022/08/26 09:10:23;;;;;;;;;10.25;8.50;;;;;25.63;47.92;101334.03;5013724;28;45704;-59
2022/08/26 09:12:49;;;;;;;;;11.50;8.25;;;;;25.63;48.02;101326.06;5013977;28;45831;-59
2022/08/26 09:15:25;;;;;;;;;9.75;9.50;;;;;25.66;48.06;101324.16;5013805;28;45286;-61
2022/08/26 09:18:02;;;;;;;;;9.75;8.00;;;;;25.66;47.81;101330.31;5014033;28;45593;-60
2022/08/26 09:20:30;;;;;;;;;7.00;7.00;;;;;25.67;48.14;101331.16;5013486;28;46529;-59
2022/08/26 09:22:56;;;;;;;;;7.25;7.25;;;;;25.68;47.99;101330.22;5013380;28;45414;-58
2022/08/26 09:25:22;;;;;;;;;8.25;7.25;;;;;25.69;47.35;101324.78;5013174;28;45311;-59
2022/08/26 09:27:50;;;;;;;;;8.50;7.25;;;;;25.72;47.86;101323.75;5013920;28;45554;-60
2022/08/26 09:30:26;;;;;;;;;7.00;7.00;;;;;25.72;47.28;101321.91;5013563;28;46553;-58
2022/08/26 09:32:57;;;;;;;;;8.00;8.00;;;;;25.73;47.02;101325.44;5013821;28;45507;-59
2022/08/26 09:35:29;;;;;;;;;8.50;7.50;;;;;25.72;47.08;101327.22;5022487;28;45411;-59
2022/08/26 09:37:55;;;;;;;;;8.25;7.25;;;;;25.73;47.15;101322.78;5019891;28;45522;-59
2022/08/26 09:40:28;;;;;;;;;9.00;7.00;;;;;25.74;47.45;101316.53;5027991;28;46562;-59
2022/08/26 09:43:18;;;;;;;;;9.50;6.75;;;;;25.75;46.80;101323.50;5023846;28;45577;-58
2022/08/26 09:45:53;;;;;;;;;8.50;8.50;;;;;25.75;47.18;101318.19;5024585;28;45520;-58
2022/08/26 09:48:32;;;;;;;;;7.75;7.00;;;;;25.77;46.72;101322.47;5028937;28;45478;-55
2022/08/26 09:51:06;;;;;;;;;7.75;7.75;;;;;25.78;47.18;101323.28;5029580;28;46414;-57
2022/08/26 09:53:51;;;;;;;;;6.50;6.50;;;;;25.80;46.98;101317.91;5032246;28;45704;-58
2022/08/26 09:56:22;;;;;;;;;8.00;8.00;;;;;25.81;47.05;101324.88;5033266;28;45331;-58
2022/08/26 09:58:48;;;;;;;;;7.00;7.00;;;;;25.80;47.08;101318.72;5033461;28;45496;-56
2022/08/26 10:01:27;;;;;;;;;11.00;9.00;;;;;25.82;46.34;101321.28;5033177;28;45800;-56
2022/08/26 10:04:03;;;;;;;;;9.50;9.25;;;;;25.82;46.56;101326.56;5032709;28;45754;-57
2022/08/26 10:06:29;;;;;;;;;9.00;8.25;;;;;25.81;46.29;101315.13;5020574;28;45421;-58
2022/08/26 10:09:00;;;;;;;;;9.25;8.25;;;;;25.82;46.46;101324.78;5033230;28;45416;-52
2022/08/26 10:11:36;;;;;;;;;12.50;10.25;;;;;25.82;46.91;101321.28;5020987;28;46277;-51
2022/08/26 10:14:09;;;;;;;;;12.00;10.00;;;;;25.81;46.65;101320.44;5013025;28;45714;-55
2022/08/26 10:16:47;;;;;;;;;12.00;10.25;;;;;25.81;46.27;101323.09;5014778;28;45372;-52
2022/08/26 10:19:19;;;;;;;;;16.25;13.25;;;;;25.82;46.82;101322.13;5025421;28;45674;-52
2022/08/26 10:21:55;;;;;;;;;17.50;15.25;;;;;25.85;46.79;101316.59;5014246;28;45534;-55
2022/08/26 10:24:28;;;;;;;;;20.00;18.50;;;;;25.88;47.05;101315.53;5028963;28;45874;-59
2022/08/26 10:27:04;;;;;;;;;29.00;24.00;;;;;25.89;46.99;101304.81;5024442;28;45681;-54
2022/08/26 10:29:52;;;;;;;;;26.00;20.25;;;;;25.92;47.09;101309.03;5023715;28;45363;-58
2022/08/26 10:32:39;;;;;;;;;25.00;20.50;;;;;25.92;47.17;101309.91;5013693;28;46205;-57
2022/08/26 10:35:08;;;;;;;;;17.00;16.50;;;;;25.92;47.13;101317.88;5014315;28;45520;-58
2022/08/26 10:37:53;;;;;;;;;14.00;14.00;;;;;25.93;47.15;101318.69;5019359;28;45418;-51
2022/08/26 10:40:42;;;;;;;;;12.50;12.25;;;;;25.95;46.43;101313.31;5032761;28;45298;-57
2022/08/26 10:43:14;;;;;;;;;10.75;9.75;;;;;25.97;46.71;101306.06;5014900;28;45431;-53
2022/08/26 10:45:49;;;;;;;;;12.00;12.00;;;;;25.97;46.76;101301.59;5012737;28;45808;-52
2022/08/26 10:48:40;;;;;;;;;11.00;9.25;;;;;25.98;46.19;101302.44;5013075;28;45757;-50
2022/08/26 10:51:09;;;;;;;;;12.75;11.00;;;;;25.98;46.18;101294.47;5013671;28;45385;-52
2022/08/26 10:53:47;;;;;;;;;8.00;8.00;;;;;25.99;46.15;101299.69;5012804;28;48003;-52
2022/08/26 10:56:43;;;;;;;;;9.50;7.50;;;;;25.99;46.02;101302.34;5012543;28;45357;-56
2022/08/26 10:59:35;;;;;;;;;9.00;8.75;;;;;26.00;46.28;101295.22;5013558;28;45457;-52
2022/08/26 11:02:30;;;;;;;;;8.75;7.50;;;;;25.97;45.51;101290.13;5007916;28;45328;-51
2022/08/26 11:05:01;;;;;;;;;8.75;8.75;;;;;26.00;45.77;101290.78;5012339;28;46319;-60
2022/08/26 11:07:44;;;;;;;;;9.00;9.00;;;;;26.01;45.44;101295.13;5018128;28;45489;-56
2022/08/26 11:10:11;;;;;;;;;9.50;8.00;;;;;26.03;45.69;101287.03;5031456;28;45378;-53
2022/08/26 11:12:36;;;;;;;;;9.00;7.25;;;;;26.04;45.25;101288.72;5033245;28;45378;-58
2022/08/26 11:15:05;;;;;;;;;4.33;4.00;;;;;26.05;45.13;101287.78;5032118;28;46161;-60
2022/08/26 11:17:45;;;;;;;;;7.25;7.25;;;;;26.05;45.01;101293.09;5011841;28;45858;-55
2022/08/26 11:20:32;;;;;;;;;8.00;8.00;;;;;26.07;44.81;101293.84;5022980;28;45422;-53
2022/08/26 11:23:15;;;;;;;;;7.00;7.00;;;;;26.07;45.03;101291.19;5029728;28;45344;-58
2022/08/26 11:26:08;;;;;;;;;7.00;6.00;;;;;26.07;45.29;101292.00;5016993;28;46266;-56
2022/08/26 11:28:38;;;;;;;;;9.50;8.25;;;;;26.08;44.85;101291.06;5015281;28;45455;-59
2022/08/26 11:31:08;;;;;;;;;7.75;7.75;;;;;26.11;44.72;101283.88;5015797;28;45327;-58
2022/08/26 11:33:55;;;;;;;;;7.25;6.25;;;;;26.13;44.58;101281.94;5015491;28;45538;-58
2022/08/26 11:36:33;;;;;;;;;7.00;6.00;;;;;26.18;44.47;101282.44;5026322;28;46934;-57
2022/08/26 11:39:00;;;;;;;;;6.50;6.25;;;;;26.18;44.69;101272.66;5035359;28;45660;-55
2022/08/26 11:41:28;;;;;;;;;10.25;6.25;;;;;26.21;44.54;101271.59;5035216;28;45374;-53
2022/08/26 11:43:56;;;;;;;;;10.00;8.00;;;;;26.24;44.31;101277.53;5030099;28;45202;-56
2022/08/26 11:46:27;;;;;;;;;10.25;9.00;;;;;26.26;44.83;101271.25;5026298;28;46204;-58